sensor_id;sensor_type;location;lat;lon;timestamp;temperature;humidity
728;DHT22;347;48.780;9.158;2023-05-07T00:01:13;17.10;30.10
728;DHT22;347;48.780;9.158;2023-05-07T00:03:38;17.20;30.60
728;DHT22;347;48.780;9.158;2023-05-07T00:06:04;17.20;31.00
728;DHT22;347;48.780;9.158;2023-05-07T00:08:30;17.20;31.00
728;DHT22;347;48.780;9.158;2023-05-07T00:10:55;17.20;31.00
728;DHT22;347;48.780;9.158;2023-05-07T00:13:21;17.20;30.90
728;DHT22;347;48.780;9.158;2023-05-07T00:15:47;17.20;30.80
728;DHT22;347;48.780;9.158;2023-05-07T00:18:12;17.20;30.80
728;DHT22;347;48.780;9.158;2023-05-07T00:20:38;17.20;31.20
728;DHT22;347;48.780;9.158;2023-05-07T00:23:03;17.10;31.20
728;DHT22;347;48.780;9.158;2023-05-07T00:25:29;17.10;32.10
728;DHT22;347;48.780;9.158;2023-05-07T00:27:54;17.20;31.40
728;DHT22;347;48.780;9.158;2023-05-07T00:30:20;17.10;31.20
728;DHT22;347;48.780;9.158;2023-05-07T00:32:45;17.10;31.30
728;DHT22;347;48.780;9.158;2023-05-07T00:35:11;17.10;31.50
728;DHT22;347;48.780;9.158;2023-05-07T00:37:37;17.10;31.50
728;DHT22;347;48.780;9.158;2023-05-07T00:40:03;17.10;31.70
728;DHT22;347;48.780;9.158;2023-05-07T00:42:32;17.10;31.60
728;DHT22;347;48.780;9.158;2023-05-07T00:44:58;17.10;31.70
728;DHT22;347;48.780;9.158;2023-05-07T00:47:25;17.10;31.70
728;DHT22;347;48.780;9.158;2023-05-07T00:49:51;17.00;31.70
728;DHT22;347;48.780;9.158;2023-05-07T00:52:17;17.00;31.90
728;DHT22;347;48.780;9.158;2023-05-07T00:54:45;17.10;31.80
728;DHT22;347;48.780;9.158;2023-05-07T00:57:10;17.00;31.80
728;DHT22;347;48.780;9.158;2023-05-07T00:59:36;17.00;31.90
728;DHT22;347;48.780;9.158;2023-05-07T01:02:02;17.00;32.10
728;DHT22;347;48.780;9.158;2023-05-07T01:04:27;16.80;33.40
728;DHT22;347;48.780;9.158;2023-05-07T01:06:55;16.60;34.10
728;DHT22;347;48.780;9.158;2023-05-07T01:09:22;16.50;34.80
728;DHT22;347;48.780;9.158;2023-05-07T01:11:49;16.60;34.40
728;DHT22;347;48.780;9.158;2023-05-07T01:14:16;16.60;33.90
728;DHT22;347;48.780;9.158;2023-05-07T01:16:42;16.60;34.00
728;DHT22;347;48.780;9.158;2023-05-07T01:19:08;16.70;34.00
728;DHT22;347;48.780;9.158;2023-05-07T01:21:37;16.80;33.80
728;DHT22;347;48.780;9.158;2023-05-07T01:24:04;16.80;33.90
728;DHT22;347;48.780;9.158;2023-05-07T01:26:30;16.80;33.90
728;DHT22;347;48.780;9.158;2023-05-07T01:28:56;16.70;33.60
728;DHT22;347;48.780;9.158;2023-05-07T01:31:23;16.70;34.20
728;DHT22;347;48.780;9.158;2023-05-07T01:33:50;16.70;34.10
728;DHT22;347;48.780;9.158;2023-05-07T01:36:17;16.70;33.80
728;DHT22;347;48.780;9.158;2023-05-07T01:38:44;16.70;33.70
728;DHT22;347;48.780;9.158;2023-05-07T01:41:10;16.80;33.70
728;DHT22;347;48.780;9.158;2023-05-07T01:43:36;16.70;33.70
728;DHT22;347;48.780;9.158;2023-05-07T01:46:02;16.70;33.60
728;DHT22;347;48.780;9.158;2023-05-07T01:48:28;16.70;33.50
728;DHT22;347;48.780;9.158;2023-05-07T01:50:55;16.70;33.60
728;DHT22;347;48.780;9.158;2023-05-07T01:53:21;16.70;33.70
728;DHT22;347;48.780;9.158;2023-05-07T01:55:46;16.70;33.80
728;DHT22;347;48.780;9.158;2023-05-07T01:58:12;16.70;33.70
728;DHT22;347;48.780;9.158;2023-05-07T02:00:37;16.70;33.50
728;DHT22;347;48.780;9.158;2023-05-07T02:03:03;16.70;33.60
728;DHT22;347;48.780;9.158;2023-05-07T02:05:28;16.70;33.60
728;DHT22;347;48.780;9.158;2023-05-07T02:07:54;16.70;33.60
728;DHT22;347;48.780;9.158;2023-05-07T02:10:19;16.60;33.70
728;DHT22;347;48.780;9.158;2023-05-07T02:12:45;16.60;34.00
728;DHT22;347;48.780;9.158;2023-05-07T02:15:10;16.60;34.00
728;DHT22;347;48.780;9.158;2023-05-07T02:17:39;16.60;33.80
728;DHT22;347;48.780;9.158;2023-05-07T02:20:23;16.70;34.60
728;DHT22;347;48.780;9.158;2023-05-07T02:22:48;16.70;34.00
728;DHT22;347;48.780;9.158;2023-05-07T02:25:14;16.60;34.20
728;DHT22;347;48.780;9.158;2023-05-07T02:27:39;16.50;35.30
728;DHT22;347;48.780;9.158;2023-05-07T02:30:05;16.30;35.80
728;DHT22;347;48.780;9.158;2023-05-07T02:32:31;16.10;36.80
728;DHT22;347;48.780;9.158;2023-05-07T02:34:56;16.00;36.80
728;DHT22;347;48.780;9.158;2023-05-07T02:37:22;16.00;36.80
728;DHT22;347;48.780;9.158;2023-05-07T02:39:47;16.00;36.90
728;DHT22;347;48.780;9.158;2023-05-07T02:42:13;16.10;36.80
728;DHT22;347;48.780;9.158;2023-05-07T02:44:38;16.20;36.90
728;DHT22;347;48.780;9.158;2023-05-07T02:47:04;16.30;36.40
728;DHT22;347;48.780;9.158;2023-05-07T02:52:52;16.40;35.70
728;DHT22;347;48.780;9.158;2023-05-07T02:55:17;16.40;35.30
728;DHT22;347;48.780;9.158;2023-05-07T02:57:43;16.40;35.10
728;DHT22;347;48.780;9.158;2023-05-07T03:00:17;16.40;35.10
728;DHT22;347;48.780;9.158;2023-05-07T03:02:43;16.40;35.40
728;DHT22;347;48.780;9.158;2023-05-07T03:05:09;16.40;35.50
728;DHT22;347;48.780;9.158;2023-05-07T03:07:35;16.40;35.40
728;DHT22;347;48.780;9.158;2023-05-07T03:10:02;16.40;35.40
728;DHT22;347;48.780;9.158;2023-05-07T03:12:27;16.40;35.20
728;DHT22;347;48.780;9.158;2023-05-07T03:14:53;16.30;35.20
728;DHT22;347;48.780;9.158;2023-05-07T03:17:18;16.40;35.30
728;DHT22;347;48.780;9.158;2023-05-07T03:19:44;16.30;35.40
728;DHT22;347;48.780;9.158;2023-05-07T03:22:09;16.30;35.40
728;DHT22;347;48.780;9.158;2023-05-07T03:24:35;16.30;35.40
728;DHT22;347;48.780;9.158;2023-05-07T03:27:00;16.30;35.40
728;DHT22;347;48.780;9.158;2023-05-07T03:29:26;16.30;35.40
728;DHT22;347;48.780;9.158;2023-05-07T03:31:52;16.20;35.40
728;DHT22;347;48.780;9.158;2023-05-07T03:34:17;16.20;35.70
728;DHT22;347;48.780;9.158;2023-05-07T03:36:50;16.20;35.80
728;DHT22;347;48.780;9.158;2023-05-07T03:39:15;16.20;35.60
728;DHT22;347;48.780;9.158;2023-05-07T03:41:41;16.20;35.90
728;DHT22;347;48.780;9.158;2023-05-07T03:44:07;16.20;36.00
728;DHT22;347;48.780;9.158;2023-05-07T03:46:33;16.20;35.90
728;DHT22;347;48.780;9.158;2023-05-07T03:48:59;16.20;36.10
728;DHT22;347;48.780;9.158;2023-05-07T03:51:24;16.20;36.10
728;DHT22;347;48.780;9.158;2023-05-07T03:53:51;16.20;36.00
728;DHT22;347;48.780;9.158;2023-05-07T03:56:18;16.20;36.20
728;DHT22;347;48.780;9.158;2023-05-07T03:58:44;16.20;36.20
728;DHT22;347;48.780;9.158;2023-05-07T04:01:10;16.20;35.80
728;DHT22;347;48.780;9.158;2023-05-07T04:03:35;16.20;35.50
728;DHT22;347;48.780;9.158;2023-05-07T04:06:01;16.10;35.50
728;DHT22;347;48.780;9.158;2023-05-07T04:08:26;16.10;35.40
728;DHT22;347;48.780;9.158;2023-05-07T04:10:56;16.10;35.50
728;DHT22;347;48.780;9.158;2023-05-07T04:13:22;16.10;35.50
728;DHT22;347;48.780;9.158;2023-05-07T04:15:47;16.10;35.60
728;DHT22;347;48.780;9.158;2023-05-07T04:18:14;16.00;35.90
728;DHT22;347;48.780;9.158;2023-05-07T04:20:40;16.00;36.20
728;DHT22;347;48.780;9.158;2023-05-07T04:23:05;16.00;36.00
728;DHT22;347;48.780;9.158;2023-05-07T04:25:31;16.00;36.10
728;DHT22;347;48.780;9.158;2023-05-07T04:27:56;16.00;36.10
728;DHT22;347;48.780;9.158;2023-05-07T04:30:22;16.00;36.30
728;DHT22;347;48.780;9.158;2023-05-07T04:32:47;15.90;36.70
728;DHT22;347;48.780;9.158;2023-05-07T04:35:13;15.90;36.70
728;DHT22;347;48.780;9.158;2023-05-07T04:37:39;15.90;36.70
728;DHT22;347;48.780;9.158;2023-05-07T04:40:05;16.00;36.80
728;DHT22;347;48.780;9.158;2023-05-07T04:42:32;16.00;36.80
728;DHT22;347;48.780;9.158;2023-05-07T04:44:57;16.00;36.80
728;DHT22;347;48.780;9.158;2023-05-07T04:47:23;15.90;36.70
728;DHT22;347;48.780;9.158;2023-05-07T04:49:48;16.00;36.80
728;DHT22;347;48.780;9.158;2023-05-07T04:52:14;16.00;36.80
728;DHT22;347;48.780;9.158;2023-05-07T04:54:40;16.00;36.80
728;DHT22;347;48.780;9.158;2023-05-07T04:57:06;16.00;36.80
728;DHT22;347;48.780;9.158;2023-05-07T04:59:32;16.00;36.80
728;DHT22;347;48.780;9.158;2023-05-07T05:01:58;16.00;36.80
728;DHT22;347;48.780;9.158;2023-05-07T05:04:23;16.00;36.80
728;DHT22;347;48.780;9.158;2023-05-07T05:06:49;16.00;36.80
728;DHT22;347;48.780;9.158;2023-05-07T05:09:15;16.00;36.80
728;DHT22;347;48.780;9.158;2023-05-07T05:11:41;15.90;36.70
728;DHT22;347;48.780;9.158;2023-05-07T05:14:06;15.90;36.70
728;DHT22;347;48.780;9.158;2023-05-07T05:16:32;16.00;36.90
728;DHT22;347;48.780;9.158;2023-05-07T05:18:58;15.80;37.20
728;DHT22;347;48.780;9.158;2023-05-07T05:21:23;15.80;37.60
728;DHT22;347;48.780;9.158;2023-05-07T05:23:49;15.90;37.60
728;DHT22;347;48.780;9.158;2023-05-07T05:26:15;15.90;37.40
728;DHT22;347;48.780;9.158;2023-05-07T05:28:40;15.90;37.40
728;DHT22;347;48.780;9.158;2023-05-07T05:31:06;15.90;37.40
728;DHT22;347;48.780;9.158;2023-05-07T05:33:31;15.70;38.30
728;DHT22;347;48.780;9.158;2023-05-07T05:35:57;15.60;38.90
728;DHT22;347;48.780;9.158;2023-05-07T05:38:22;15.50;39.80
728;DHT22;347;48.780;9.158;2023-05-07T05:40:48;15.40;39.10
728;DHT22;347;48.780;9.158;2023-05-07T05:43:14;15.50;39.50
728;DHT22;347;48.780;9.158;2023-05-07T05:45:40;15.50;39.50
728;DHT22;347;48.780;9.158;2023-05-07T05:48:05;15.50;39.30
728;DHT22;347;48.780;9.158;2023-05-07T05:50:31;15.60;39.40
728;DHT22;347;48.780;9.158;2023-05-07T05:52:57;15.70;39.10
728;DHT22;347;48.780;9.158;2023-05-07T05:55:23;15.80;39.00
728;DHT22;347;48.780;9.158;2023-05-07T05:57:49;15.80;38.80
728;DHT22;347;48.780;9.158;2023-05-07T06:00:16;15.90;38.50
728;DHT22;347;48.780;9.158;2023-05-07T06:02:41;16.00;38.20
728;DHT22;347;48.780;9.158;2023-05-07T06:05:08;16.10;37.20
728;DHT22;347;48.780;9.158;2023-05-07T06:07:34;16.20;36.90
728;DHT22;347;48.780;9.158;2023-05-07T06:10:00;16.10;36.90
728;DHT22;347;48.780;9.158;2023-05-07T06:12:26;16.10;37.50
728;DHT22;347;48.780;9.158;2023-05-07T06:14:51;16.20;36.90
728;DHT22;347;48.780;9.158;2023-05-07T06:17:17;16.30;37.10
728;DHT22;347;48.780;9.158;2023-05-07T06:19:43;16.40;37.20
728;DHT22;347;48.780;9.158;2023-05-07T06:22:08;16.40;36.20
728;DHT22;347;48.780;9.158;2023-05-07T06:24:34;16.40;35.80
728;DHT22;347;48.780;9.158;2023-05-07T06:26:59;16.40;36.40
728;DHT22;347;48.780;9.158;2023-05-07T06:29:25;16.40;35.80
728;DHT22;347;48.780;9.158;2023-05-07T06:31:55;16.50;35.50
728;DHT22;347;48.780;9.158;2023-05-07T06:34:21;16.60;35.90
728;DHT22;347;48.780;9.158;2023-05-07T06:36:46;16.60;35.90
728;DHT22;347;48.780;9.158;2023-05-07T06:39:12;16.70;36.00
728;DHT22;347;48.780;9.158;2023-05-07T06:41:37;16.70;34.80
728;DHT22;347;48.780;9.158;2023-05-07T06:44:04;16.60;35.10
728;DHT22;347;48.780;9.158;2023-05-07T06:46:30;16.50;35.40
728;DHT22;347;48.780;9.158;2023-05-07T06:48:56;16.60;35.50
728;DHT22;347;48.780;9.158;2023-05-07T06:51:22;16.70;35.60
728;DHT22;347;48.780;9.158;2023-05-07T06:53:48;16.70;35.00
728;DHT22;347;48.780;9.158;2023-05-07T06:56:13;16.80;35.40
728;DHT22;347;48.780;9.158;2023-05-07T06:58:39;16.70;35.40
728;DHT22;347;48.780;9.158;2023-05-07T07:01:04;16.70;35.30
728;DHT22;347;48.780;9.158;2023-05-07T07:03:30;16.80;34.90
728;DHT22;347;48.780;9.158;2023-05-07T07:05:55;16.80;34.80
728;DHT22;347;48.780;9.158;2023-05-07T07:08:22;16.90;34.00
728;DHT22;347;48.780;9.158;2023-05-07T07:10:48;16.90;34.80
728;DHT22;347;48.780;9.158;2023-05-07T07:13:13;17.00;34.20
728;DHT22;347;48.780;9.158;2023-05-07T07:15:39;17.00;34.00
728;DHT22;347;48.780;9.158;2023-05-07T07:18:05;17.10;33.50
728;DHT22;347;48.780;9.158;2023-05-07T07:20:31;17.20;33.50
728;DHT22;347;48.780;9.158;2023-05-07T07:22:57;17.20;33.00
728;DHT22;347;48.780;9.158;2023-05-07T07:25:22;17.30;33.40
728;DHT22;347;48.780;9.158;2023-05-07T07:27:49;17.40;32.50
728;DHT22;347;48.780;9.158;2023-05-07T07:30:14;17.40;32.20
728;DHT22;347;48.780;9.158;2023-05-07T07:32:40;17.50;32.20
728;DHT22;347;48.780;9.158;2023-05-07T07:35:06;17.50;32.10
728;DHT22;347;48.780;9.158;2023-05-07T07:37:32;17.60;31.90
728;DHT22;347;48.780;9.158;2023-05-07T07:39:57;17.70;31.70
728;DHT22;347;48.780;9.158;2023-05-07T07:42:23;17.70;31.70
728;DHT22;347;48.780;9.158;2023-05-07T07:44:48;17.80;31.40
728;DHT22;347;48.780;9.158;2023-05-07T07:47:14;17.90;31.40
728;DHT22;347;48.780;9.158;2023-05-07T07:49:39;17.90;31.20
728;DHT22;347;48.780;9.158;2023-05-07T07:52:05;18.00;31.40
728;DHT22;347;48.780;9.158;2023-05-07T07:54:31;18.10;31.60
728;DHT22;347;48.780;9.158;2023-05-07T07:56:56;18.20;30.90
728;DHT22;347;48.780;9.158;2023-05-07T07:59:22;18.20;30.90
728;DHT22;347;48.780;9.158;2023-05-07T08:01:48;18.30;31.00
728;DHT22;347;48.780;9.158;2023-05-07T08:04:15;18.40;30.70
728;DHT22;347;48.780;9.158;2023-05-07T08:06:41;18.50;30.00
728;DHT22;347;48.780;9.158;2023-05-07T08:09:06;18.50;30.00
728;DHT22;347;48.780;9.158;2023-05-07T08:11:32;18.50;30.00
728;DHT22;347;48.780;9.158;2023-05-07T08:13:57;18.50;30.00
728;DHT22;347;48.780;9.158;2023-05-07T08:16:23;18.60;30.50
728;DHT22;347;48.780;9.158;2023-05-07T08:18:48;18.60;30.20
728;DHT22;347;48.780;9.158;2023-05-07T08:21:14;18.70;30.20
728;DHT22;347;48.780;9.158;2023-05-07T08:23:40;18.80;29.10
728;DHT22;347;48.780;9.158;2023-05-07T08:26:05;18.90;29.20
728;DHT22;347;48.780;9.158;2023-05-07T08:28:32;18.90;29.20
728;DHT22;347;48.780;9.158;2023-05-07T08:30:58;19.00;29.10
728;DHT22;347;48.780;9.158;2023-05-07T08:33:25;19.10;29.30
728;DHT22;347;48.780;9.158;2023-05-07T08:35:51;19.20;28.60
728;DHT22;347;48.780;9.158;2023-05-07T08:38:16;19.30;28.20
728;DHT22;347;48.780;9.158;2023-05-07T08:40:42;19.40;28.40
728;DHT22;347;48.780;9.158;2023-05-07T08:43:08;19.50;27.90
728;DHT22;347;48.780;9.158;2023-05-07T08:45:34;19.60;27.80
728;DHT22;347;48.780;9.158;2023-05-07T08:48:02;19.60;28.10
728;DHT22;347;48.780;9.158;2023-05-07T08:50:28;19.80;27.50
728;DHT22;347;48.780;9.158;2023-05-07T08:52:55;19.90;26.70
728;DHT22;347;48.780;9.158;2023-05-07T08:55:22;20.10;26.70
728;DHT22;347;48.780;9.158;2023-05-07T08:57:47;20.20;26.00
728;DHT22;347;48.780;9.158;2023-05-07T09:00:14;20.40;25.60
728;DHT22;347;48.780;9.158;2023-05-07T09:02:40;20.40;26.00
728;DHT22;347;48.780;9.158;2023-05-07T09:05:06;20.50;25.90
728;DHT22;347;48.780;9.158;2023-05-07T09:07:31;20.50;25.30
728;DHT22;347;48.780;9.158;2023-05-07T09:09:57;20.70;25.00
728;DHT22;347;48.780;9.158;2023-05-07T09:12:23;20.70;24.60
728;DHT22;347;48.780;9.158;2023-05-07T09:14:49;20.90;24.10
728;DHT22;347;48.780;9.158;2023-05-07T09:17:16;21.10;24.10
728;DHT22;347;48.780;9.158;2023-05-07T09:19:42;21.10;23.90
728;DHT22;347;48.780;9.158;2023-05-07T09:22:08;21.20;23.80
728;DHT22;347;48.780;9.158;2023-05-07T09:24:34;21.30;23.30
728;DHT22;347;48.780;9.158;2023-05-07T09:27:01;21.40;23.20
728;DHT22;347;48.780;9.158;2023-05-07T09:29:28;21.40;23.20
728;DHT22;347;48.780;9.158;2023-05-07T09:31:55;21.60;22.80
728;DHT22;347;48.780;9.158;2023-05-07T09:34:21;21.70;22.80
728;DHT22;347;48.780;9.158;2023-05-07T09:36:47;21.90;21.80
728;DHT22;347;48.780;9.158;2023-05-07T09:39:13;22.10;22.00
728;DHT22;347;48.780;9.158;2023-05-07T09:41:46;22.40;21.30
728;DHT22;347;48.780;9.158;2023-05-07T09:44:13;22.70;19.70
728;DHT22;347;48.780;9.158;2023-05-07T09:46:42;22.90;19.50
728;DHT22;347;48.780;9.158;2023-05-07T09:49:12;23.00;18.70
728;DHT22;347;48.780;9.158;2023-05-07T09:51:48;23.10;18.50
728;DHT22;347;48.780;9.158;2023-05-07T09:54:15;23.20;18.00
728;DHT22;347;48.780;9.158;2023-05-07T09:56:40;23.30;18.50
728;DHT22;347;48.780;9.158;2023-05-07T09:59:07;23.30;18.10
728;DHT22;347;48.780;9.158;2023-05-07T10:01:36;23.30;17.90
728;DHT22;347;48.780;9.158;2023-05-07T10:04:02;23.30;17.50
728;DHT22;347;48.780;9.158;2023-05-07T10:06:34;23.40;17.60
728;DHT22;347;48.780;9.158;2023-05-07T10:09:00;23.50;17.70
728;DHT22;347;48.780;9.158;2023-05-07T10:11:26;23.60;17.60
728;DHT22;347;48.780;9.158;2023-05-07T10:13:53;23.60;18.40
728;DHT22;347;48.780;9.158;2023-05-07T10:16:19;23.70;18.40
728;DHT22;347;48.780;9.158;2023-05-07T10:18:46;23.70;17.80
728;DHT22;347;48.780;9.158;2023-05-07T10:21:20;23.90;18.00
728;DHT22;347;48.780;9.158;2023-05-07T10:24:04;23.90;17.40
728;DHT22;347;48.780;9.158;2023-05-07T10:26:36;23.90;17.80
728;DHT22;347;48.780;9.158;2023-05-07T10:29:07;23.90;17.50
728;DHT22;347;48.780;9.158;2023-05-07T10:31:55;23.80;17.20
728;DHT22;347;48.780;9.158;2023-05-07T10:34:29;23.90;17.70
728;DHT22;347;48.780;9.158;2023-05-07T10:36:58;24.00;16.90
728;DHT22;347;48.780;9.158;2023-05-07T10:39:24;24.00;17.10
728;DHT22;347;48.780;9.158;2023-05-07T10:41:50;24.10;16.00
728;DHT22;347;48.780;9.158;2023-05-07T10:44:29;24.10;16.50
728;DHT22;347;48.780;9.158;2023-05-07T10:47:09;24.10;16.40
728;DHT22;347;48.780;9.158;2023-05-07T10:49:36;24.00;16.10
728;DHT22;347;48.780;9.158;2023-05-07T10:52:16;23.80;16.90
728;DHT22;347;48.780;9.158;2023-05-07T10:54:43;23.60;17.20
728;DHT22;347;48.780;9.158;2023-05-07T10:59:57;23.60;16.60
728;DHT22;347;48.780;9.158;2023-05-07T11:02:23;23.70;16.10
728;DHT22;347;48.780;9.158;2023-05-07T11:05:20;23.70;16.30
728;DHT22;347;48.780;9.158;2023-05-07T11:07:58;23.60;16.90
728;DHT22;347;48.780;9.158;2023-05-07T11:10:48;23.60;17.20
728;DHT22;347;48.780;9.158;2023-05-07T11:13:14;23.50;17.80
728;DHT22;347;48.780;9.158;2023-05-07T11:15:42;23.50;18.10
728;DHT22;347;48.780;9.158;2023-05-07T11:18:10;23.40;17.30
728;DHT22;347;48.780;9.158;2023-05-07T11:20:53;23.40;17.20
728;DHT22;347;48.780;9.158;2023-05-07T11:26:04;23.40;17.40
728;DHT22;347;48.780;9.158;2023-05-07T11:28:31;23.40;17.90
728;DHT22;347;48.780;9.158;2023-05-07T11:31:01;23.30;17.90
728;DHT22;347;48.780;9.158;2023-05-07T11:33:27;23.20;18.00
728;DHT22;347;48.780;9.158;2023-05-07T11:35:53;23.00;18.30
728;DHT22;347;48.780;9.158;2023-05-07T11:38:19;22.90;16.70
728;DHT22;347;48.780;9.158;2023-05-07T11:43:16;22.80;16.80
728;DHT22;347;48.780;9.158;2023-05-07T11:45:42;22.60;17.00
728;DHT22;347;48.780;9.158;2023-05-07T11:48:08;22.60;17.50
728;DHT22;347;48.780;9.158;2023-05-07T11:50:33;22.50;18.20
728;DHT22;347;48.780;9.158;2023-05-07T11:52:59;22.50;19.60
728;DHT22;347;48.780;9.158;2023-05-07T11:55:25;22.40;20.40
728;DHT22;347;48.780;9.158;2023-05-07T11:57:51;22.40;21.40
728;DHT22;347;48.780;9.158;2023-05-07T12:00:17;22.30;23.20
728;DHT22;347;48.780;9.158;2023-05-07T12:02:45;22.30;24.60
728;DHT22;347;48.780;9.158;2023-05-07T12:05:10;22.10;26.40
728;DHT22;347;48.780;9.158;2023-05-07T12:07:36;22.00;28.20
728;DHT22;347;48.780;9.158;2023-05-07T12:10:05;21.80;29.40
728;DHT22;347;48.780;9.158;2023-05-07T12:12:41;21.60;30.60
728;DHT22;347;48.780;9.158;2023-05-07T12:15:07;21.40;32.80
728;DHT22;347;48.780;9.158;2023-05-07T12:17:33;21.00;39.20
728;DHT22;347;48.780;9.158;2023-05-07T12:19:59;20.60;36.60
728;DHT22;347;48.780;9.158;2023-05-07T12:22:25;20.40;33.30
728;DHT22;347;48.780;9.158;2023-05-07T12:24:57;20.30;33.20
728;DHT22;347;48.780;9.158;2023-05-07T12:27:23;20.20;30.10
728;DHT22;347;48.780;9.158;2023-05-07T12:29:50;19.90;35.00
728;DHT22;347;48.780;9.158;2023-05-07T12:32:20;19.70;35.70
728;DHT22;347;48.780;9.158;2023-05-07T12:34:47;19.50;36.30
728;DHT22;347;48.780;9.158;2023-05-07T12:37:14;19.40;32.40
728;DHT22;347;48.780;9.158;2023-05-07T12:40:02;19.30;38.80
728;DHT22;347;48.780;9.158;2023-05-07T12:42:33;19.20;41.20
728;DHT22;347;48.780;9.158;2023-05-07T12:45:00;19.00;44.90
728;DHT22;347;48.780;9.158;2023-05-07T12:47:32;18.80;47.40
728;DHT22;347;48.780;9.158;2023-05-07T12:49:59;18.50;49.10
728;DHT22;347;48.780;9.158;2023-05-07T12:52:24;18.20;46.00
728;DHT22;347;48.780;9.158;2023-05-07T12:54:50;18.00;43.40
728;DHT22;347;48.780;9.158;2023-05-07T12:57:19;18.00;43.90
728;DHT22;347;48.780;9.158;2023-05-07T12:59:45;18.10;44.90
728;DHT22;347;48.780;9.158;2023-05-07T13:02:10;18.10;44.60
728;DHT22;347;48.780;9.158;2023-05-07T13:04:36;18.20;39.90
728;DHT22;347;48.780;9.158;2023-05-07T13:07:02;18.20;41.20
728;DHT22;347;48.780;9.158;2023-05-07T13:09:28;18.20;42.80
728;DHT22;347;48.780;9.158;2023-05-07T13:11:57;18.30;43.40
728;DHT22;347;48.780;9.158;2023-05-07T13:14:26;18.00;47.20
728;DHT22;347;48.780;9.158;2023-05-07T13:16:52;18.00;48.70
728;DHT22;347;48.780;9.158;2023-05-07T13:19:17;17.80;46.10
728;DHT22;347;48.780;9.158;2023-05-07T13:21:43;17.60;47.30
728;DHT22;347;48.780;9.158;2023-05-07T13:24:08;17.40;45.30
728;DHT22;347;48.780;9.158;2023-05-07T13:26:34;17.30;44.50
728;DHT22;347;48.780;9.158;2023-05-07T13:29:00;17.20;44.70
728;DHT22;347;48.780;9.158;2023-05-07T13:31:26;17.20;43.80
728;DHT22;347;48.780;9.158;2023-05-07T13:33:51;17.20;45.60
728;DHT22;347;48.780;9.158;2023-05-07T13:36:17;17.40;48.20
728;DHT22;347;48.780;9.158;2023-05-07T13:38:43;17.50;48.20
728;DHT22;347;48.780;9.158;2023-05-07T13:41:08;17.50;48.20
728;DHT22;347;48.780;9.158;2023-05-07T13:43:34;17.70;48.60
728;DHT22;347;48.780;9.158;2023-05-07T13:46:00;17.70;48.40
728;DHT22;347;48.780;9.158;2023-05-07T13:48:26;17.70;48.40
728;DHT22;347;48.780;9.158;2023-05-07T13:50:51;17.80;47.80
728;DHT22;347;48.780;9.158;2023-05-07T13:53:17;17.80;47.30
728;DHT22;347;48.780;9.158;2023-05-07T13:55:44;17.80;46.60
728;DHT22;347;48.780;9.158;2023-05-07T13:58:10;17.80;47.60
728;DHT22;347;48.780;9.158;2023-05-07T14:00:35;17.90;48.10
728;DHT22;347;48.780;9.158;2023-05-07T14:03:01;17.90;46.50
728;DHT22;347;48.780;9.158;2023-05-07T14:05:27;17.80;45.40
728;DHT22;347;48.780;9.158;2023-05-07T14:07:54;17.50;43.50
728;DHT22;347;48.780;9.158;2023-05-07T14:10:19;17.30;43.90
728;DHT22;347;48.780;9.158;2023-05-07T14:12:45;17.20;45.50
728;DHT22;347;48.780;9.158;2023-05-07T14:15:11;17.20;44.30
728;DHT22;347;48.780;9.158;2023-05-07T14:17:37;17.10;47.90
728;DHT22;347;48.780;9.158;2023-05-07T14:20:03;17.10;46.40
728;DHT22;347;48.780;9.158;2023-05-07T14:22:29;16.90;48.00
728;DHT22;347;48.780;9.158;2023-05-07T14:24:54;16.80;48.80
728;DHT22;347;48.780;9.158;2023-05-07T14:27:20;16.70;50.50
728;DHT22;347;48.780;9.158;2023-05-07T14:29:46;16.70;51.40
728;DHT22;347;48.780;9.158;2023-05-07T14:32:17;16.70;52.20
728;DHT22;347;48.780;9.158;2023-05-07T14:34:43;16.60;52.80
728;DHT22;347;48.780;9.158;2023-05-07T14:37:09;16.60;52.60
728;DHT22;347;48.780;9.158;2023-05-07T14:39:34;16.50;52.50
728;DHT22;347;48.780;9.158;2023-05-07T14:42:00;16.50;53.00
728;DHT22;347;48.780;9.158;2023-05-07T14:44:26;16.50;52.80
728;DHT22;347;48.780;9.158;2023-05-07T14:46:51;16.40;52.60
728;DHT22;347;48.780;9.158;2023-05-07T14:49:17;16.50;53.30
728;DHT22;347;48.780;9.158;2023-05-07T14:51:46;16.50;52.70
728;DHT22;347;48.780;9.158;2023-05-07T14:54:15;16.40;52.20
728;DHT22;347;48.780;9.158;2023-05-07T14:56:41;16.50;52.20
728;DHT22;347;48.780;9.158;2023-05-07T14:59:12;16.50;51.30
728;DHT22;347;48.780;9.158;2023-05-07T15:01:38;16.60;49.60
728;DHT22;347;48.780;9.158;2023-05-07T15:04:07;16.70;50.20
728;DHT22;347;48.780;9.158;2023-05-07T15:06:33;16.80;48.90
728;DHT22;347;48.780;9.158;2023-05-07T15:08:58;16.90;49.20
728;DHT22;347;48.780;9.158;2023-05-07T15:11:24;17.00;49.90
728;DHT22;347;48.780;9.158;2023-05-07T15:13:52;17.20;50.80
728;DHT22;347;48.780;9.158;2023-05-07T15:16:18;17.30;51.10
728;DHT22;347;48.780;9.158;2023-05-07T15:18:44;17.40;50.90
728;DHT22;347;48.780;9.158;2023-05-07T15:21:10;17.50;50.60
728;DHT22;347;48.780;9.158;2023-05-07T15:23:35;17.60;49.90
728;DHT22;347;48.780;9.158;2023-05-07T15:26:01;17.60;49.60
728;DHT22;347;48.780;9.158;2023-05-07T15:28:30;17.70;50.00
728;DHT22;347;48.780;9.158;2023-05-07T15:30:56;17.80;50.00
728;DHT22;347;48.780;9.158;2023-05-07T15:33:21;17.80;49.10
728;DHT22;347;48.780;9.158;2023-05-07T15:35:47;17.80;48.50
728;DHT22;347;48.780;9.158;2023-05-07T15:38:13;17.80;48.50
728;DHT22;347;48.780;9.158;2023-05-07T15:40:39;17.80;49.70
728;DHT22;347;48.780;9.158;2023-05-07T15:43:08;17.80;48.50
728;DHT22;347;48.780;9.158;2023-05-07T15:45:39;17.90;48.50
728;DHT22;347;48.780;9.158;2023-05-07T15:48:05;17.90;48.60
728;DHT22;347;48.780;9.158;2023-05-07T15:50:31;18.00;48.60
728;DHT22;347;48.780;9.158;2023-05-07T15:52:57;18.00;47.80
728;DHT22;347;48.780;9.158;2023-05-07T15:55:23;18.00;48.70
728;DHT22;347;48.780;9.158;2023-05-07T15:57:48;18.00;48.70
728;DHT22;347;48.780;9.158;2023-05-07T16:00:14;18.00;48.20
728;DHT22;347;48.780;9.158;2023-05-07T16:02:44;18.00;48.60
728;DHT22;347;48.780;9.158;2023-05-07T16:05:09;18.00;49.10
728;DHT22;347;48.780;9.158;2023-05-07T16:07:36;18.00;50.10
728;DHT22;347;48.780;9.158;2023-05-07T16:10:05;18.00;50.10
728;DHT22;347;48.780;9.158;2023-05-07T16:12:32;18.00;49.30
728;DHT22;347;48.780;9.158;2023-05-07T16:14:57;18.00;48.70
728;DHT22;347;48.780;9.158;2023-05-07T16:17:23;18.00;48.60
728;DHT22;347;48.780;9.158;2023-05-07T16:19:50;18.00;48.70
728;DHT22;347;48.780;9.158;2023-05-07T16:22:16;18.00;48.60
728;DHT22;347;48.780;9.158;2023-05-07T16:24:41;18.00;49.40
728;DHT22;347;48.780;9.158;2023-05-07T16:27:07;18.00;49.10
728;DHT22;347;48.780;9.158;2023-05-07T16:29:32;18.00;48.60
728;DHT22;347;48.780;9.158;2023-05-07T16:31:58;18.00;48.60
728;DHT22;347;48.780;9.158;2023-05-07T16:34:24;17.90;49.40
728;DHT22;347;48.780;9.158;2023-05-07T16:36:49;17.90;50.20
728;DHT22;347;48.780;9.158;2023-05-07T16:39:15;17.90;50.80
728;DHT22;347;48.780;9.158;2023-05-07T16:41:41;17.80;50.90